Time;durP1;ratioP1;P1;durP2;ratioP2;P2;SDS_P1;SDS_P2;PMS_P1;PMS_P2;Temp;Humidity;BMP_temperature;BMP_pressure;BME280_temperature;BME280_humidity;BME280_pressure;Samples;Min_cycle;Max_cycle;Signal;HPM_P1;HPM_P2
2023/08/29 00:00:38;;;;;;;;;;;;;;;11.35;52.94;95066.34;4953759;28;19926;-67
2023/08/29 00:03:03;;;;;;;;;;;;;;;11.42;52.02;95058.38;4954289;28;20413;-66
2023/08/29 00:05:29;;;;;;;;;;;;;;;11.56;51.96;95063.78;4952701;28;19926;-67
2023/08/29 00:07:54;;;;;;;;;;;;;;;11.35;51.66;95061.00;4952832;28;19937;-67
2023/08/29 00:10:20;;;;;;;;;;;;;;;11.14;52.82;95053.94;4953705;28;20068;-67
2023/08/29 00:12:45;;;;;;;;;;;;;;;10.96;53.08;95049.06;4954188;28;19933;-67
2023/08/29 00:15:10;;;;;;;;;;;;;;;10.74;53.96;95063.25;4953945;28;19979;-66
2023/08/29 00:17:35;;;;;;;;;;;;;;;10.70;54.36;95061.16;4954225;28;20532;-67
2023/08/29 00:20:01;;;;;;;;;;;;;;;10.92;53.71;95053.13;4953855;28;19965;-67
2023/08/29 00:22:26;;;;;;;;;;;;;;;11.06;53.21;95065.53;4954500;28;19922;-66
2023/08/29 00:24:52;;;;;;;;;;;;;;;11.23;53.22;95063.44;4953440;28;19984;-67
2023/08/29 00:27:17;;;;;;;;;;;;;;;11.25;52.19;95058.72;4954027;28;19921;-67
2023/08/29 00:29:43;;;;;;;;;;;;;;;11.18;53.14;95054.38;4954101;28;20299;-67
2023/08/29 00:32:08;;;;;;;;;;;;;;;10.90;53.01;95050.66;4953713;28;20434;-67
2023/08/29 00:34:33;;;;;;;;;;;;;;;10.59;54.02;95058.00;4954297;28;19922;-66
2023/08/29 00:36:58;;;;;;;;;;;;;;;10.98;54.31;95055.84;4953469;28;20521;-67
2023/08/29 00:39:24;;;;;;;;;;;;;;;11.06;53.26;95056.72;4953371;28;19922;-67
2023/08/29 00:41:51;;;;;;;;;;;;;;;11.15;52.89;95057.41;4954010;28;19922;-67
2023/08/29 00:44:16;;;;;;;;;;;;;;;11.16;53.63;95057.22;4953350;28;20039;-67
2023/08/29 00:46:42;;;;;;;;;;;;;;;11.42;53.12;95049.59;4953235;28;20009;-67
2023/08/29 00:49:07;;;;;;;;;;;;;;;11.63;52.65;95043.31;4963520;28;19926;-67
2023/08/29 00:51:32;;;;;;;;;;;;;;;11.69;51.27;95053.19;4952552;28;20372;-67
2023/08/29 00:53:57;;;;;;;;;;;;;;;11.90;51.61;95057.56;4953331;28;20028;-67
2023/08/29 00:56:23;;;;;;;;;;;;;;;11.88;51.68;95062.28;4953455;28;19988;-67
2023/08/29 00:58:48;;;;;;;;;;;;;;;11.84;50.85;95057.53;4968137;28;20631;-67
2023/08/29 01:01:16;;;;;;;;;;;;;;;11.69;51.21;95063.03;4968937;28;20017;-68
2023/08/29 01:03:42;;;;;;;;;;;;;;;11.54;51.89;95064.00;4953996;28;19930;-68
2023/08/29 01:06:07;;;;;;;;;;;;;;;11.60;52.12;95073.03;4951644;28;19922;-67
2023/08/29 01:08:32;;;;;;;;;;;;;;;11.70;52.31;95064.69;4953603;28;19922;-67
2023/08/29 01:11:00;;;;;;;;;;;;;;;11.83;52.15;95067.38;4952487;28;19940;-68
2023/08/29 01:13:34;;;;;;;;;;;;;;;11.95;51.96;95074.81;4954451;28;20360;-67
2023/08/29 01:16:00;;;;;;;;;;;;;;;12.07;51.20;95080.44;4952766;28;19960;-67
2023/08/29 01:18:26;;;;;;;;;;;;;;;12.18;51.35;95082.53;4948990;28;19946;-67
2023/08/29 01:20:54;;;;;;;;;;;;;;;12.23;50.48;95084.56;4953428;28;20495;-67
2023/08/29 01:23:21;;;;;;;;;;;;;;;12.34;51.05;95089.31;4967525;28;20195;-67
2023/08/29 01:26:05;;;;;;;;;;;;;;;12.34;49.84;95088.50;4954110;28;20409;-67
2023/08/29 01:28:31;;;;;;;;;;;;;;;12.33;50.49;95097.53;4954328;28;20008;-66
2023/08/29 01:30:56;;;;;;;;;;;;;;;12.37;50.57;95109.44;4953591;28;20478;-67
2023/08/29 01:33:21;;;;;;;;;;;;;;;12.44;50.60;95117.47;4947284;28;20209;-67
2023/08/29 01:35:47;;;;;;;;;;;;;;;12.50;50.54;95117.50;4951651;28;19922;-66
2023/08/29 01:38:12;;;;;;;;;;;;;;;12.57;50.24;95116.69;4954089;28;19918;-67
2023/08/29 01:40:39;;;;;;;;;;;;;;;12.42;49.46;95112.34;4953887;28;19926;-66
2023/08/29 01:43:04;;;;;;;;;;;;;;;12.47;50.23;95125.91;4950467;28;19950;-68
2023/08/29 01:45:29;;;;;;;;;;;;;;;12.54;50.12;95123.22;4953299;28;20379;-67
2023/08/29 01:47:54;;;;;;;;;;;;;;;12.60;49.83;95122.44;4947674;28;19922;-67
2023/08/29 01:50:20;;;;;;;;;;;;;;;12.60;49.32;95121.59;4953857;28;19961;-67
2023/08/29 01:52:45;;;;;;;;;;;;;;;12.53;49.57;95126.94;4951661;28;19954;-67
2023/08/29 01:55:10;;;;;;;;;;;;;;;12.61;48.90;95117.94;4953935;28;20125;-67
2023/08/29 01:57:35;;;;;;;;;;;;;;;12.50;49.93;95127.34;4953723;28;20187;-67
2023/08/29 02:00:02;;;;;;;;;;;;;;;12.52;49.73;95131.44;4950804;28;20366;-67
2023/08/29 02:02:27;;;;;;;;;;;;;;;12.51;50.08;95129.81;4952460;28;20348;-67
2023/08/29 02:04:52;;;;;;;;;;;;;;;12.55;49.94;95130.25;4951501;28;20347;-66
2023/08/29 02:07:18;;;;;;;;;;;;;;;12.57;49.85;95127.38;4953715;28;20426;-67
2023/08/29 02:09:43;;;;;;;;;;;;;;;12.45;50.17;95121.78;4952870;28;20055;-67
2023/08/29 02:12:08;;;;;;;;;;;;;;;12.26;49.99;95110.84;4953728;28;20031;-67
2023/08/29 02:14:33;;;;;;;;;;;;;;;12.36;50.29;95102.47;4953769;28;20245;-68
2023/08/29 02:16:59;;;;;;;;;;;;;;;12.44;50.15;95090.78;4952128;28;20395;-68
2023/08/29 02:19:26;;;;;;;;;;;;;;;12.52;49.45;95088.72;4953017;28;20036;-67
2023/08/29 02:21:51;;;;;;;;;;;;;;;12.50;49.07;95079.28;4953804;28;19937;-67
2023/08/29 02:24:16;;;;;;;;;;;;;;;12.40;49.52;95074.34;4952998;28;20499;-67
2023/08/29 02:26:41;;;;;;;;;;;;;;;12.32;49.93;95062.03;4953487;28;20084;-68
2023/08/29 02:29:07;;;;;;;;;;;;;;;12.34;50.38;95067.97;4956063;28;20003;-67
2023/08/29 02:31:32;;;;;;;;;;;;;;;12.36;50.23;95052.56;4957158;28;20005;-67
2023/08/29 02:33:57;;;;;;;;;;;;;;;12.41;50.52;95060.78;4956260;28;19969;-67
2023/08/29 02:36:23;;;;;;;;;;;;;;;12.27;50.17;95054.59;4956785;28;20130;-67
2023/08/29 02:38:48;;;;;;;;;;;;;;;12.36;49.92;95055.25;4956636;28;19965;-67
2023/08/29 02:41:13;;;;;;;;;;;;;;;12.39;50.04;95054.84;4956539;28;20020;-67
2023/08/29 02:43:38;;;;;;;;;;;;;;;12.45;49.85;95050.53;4951869;28;19960;-67
2023/08/29 02:46:04;;;;;;;;;;;;;;;12.51;50.26;95051.56;4957113;28;20362;-67
2023/08/29 02:48:29;;;;;;;;;;;;;;;12.53;49.86;95047.66;4955592;28;20028;-68
2023/08/29 02:50:54;;;;;;;;;;;;;;;12.55;49.29;95042.13;4956336;28;19933;-67
2023/08/29 02:53:20;;;;;;;;;;;;;;;12.61;49.66;95043.97;4955911;28;19965;-67
2023/08/29 02:55:45;;;;;;;;;;;;;;;12.64;49.58;95038.22;4956406;28;19922;-68
2023/08/29 02:58:10;;;;;;;;;;;;;;;12.67;49.76;95036.97;4956510;28;20505;-68
2023/08/29 03:00:36;;;;;;;;;;;;;;;12.64;49.60;95034.72;4955611;28;20387;-67
2023/08/29 03:03:03;;;;;;;;;;;;;;;12.66;49.62;95030.84;4954849;28;20553;-68
2023/08/29 03:05:28;;;;;;;;;;;;;;;12.72;49.22;95031.03;4952655;28;20322;-67
2023/08/29 03:07:55;;;;;;;;;;;;;;;12.52;48.95;95029.19;4955147;28;20369;-67
2023/08/29 03:10:20;;;;;;;;;;;;;;;12.62;49.59;95026.91;4956373;28;19926;-67
2023/08/29 03:12:45;;;;;;;;;;;;;;;12.65;49.06;95026.50;4956074;28;20384;-67
2023/08/29 03:15:10;;;;;;;;;;;;;;;12.46;49.26;95024.66;4955884;28;20212;-67
2023/08/29 03:17:36;;;;;;;;;;;;;;;12.31;49.70;95020.34;4954042;28;19999;-67
2023/08/29 03:20:01;;;;;;;;;;;;;;;12.33;49.94;95020.94;4956183;28;19969;-67
2023/08/29 03:22:26;;;;;;;;;;;;;;;12.22;49.55;95011.72;4956612;28;20458;-67
2023/08/29 03:24:51;;;;;;;;;;;;;;;12.10;49.97;95016.81;4955856;28;20210;-67
2023/08/29 03:27:17;;;;;;;;;;;;;;;12.05;50.18;95013.91;4956383;28;19922;-66
2023/08/29 03:29:42;;;;;;;;;;;;;;;12.20;50.40;95013.75;4954763;28;20404;-66
2023/08/29 03:32:07;;;;;;;;;;;;;;;12.38;50.34;95002.47;4955322;28;19973;-67
2023/08/29 03:34:33;;;;;;;;;;;;;;;12.52;49.89;95005.16;4955833;28;20161;-67
2023/08/29 03:36:58;;;;;;;;;;;;;;;12.63;49.42;95001.88;4955828;28;19961;-67
2023/08/29 03:39:24;;;;;;;;;;;;;;;12.73;49.64;95000.63;4954616;28;19965;-67
2023/08/29 03:41:49;;;;;;;;;;;;;;;12.79;49.17;94999.81;4955959;28;20058;-67
2023/08/29 03:44:15;;;;;;;;;;;;;;;12.59;49.46;94997.97;4950416;28;20269;-67
2023/08/29 03:46:40;;;;;;;;;;;;;;;12.69;49.28;94992.22;4954950;28;20307;-67
2023/08/29 03:49:05;;;;;;;;;;;;;;;12.76;49.21;94992.19;4949309;28;20034;-67
2023/08/29 03:51:31;;;;;;;;;;;;;;;12.91;48.83;94992.78;4955762;28;20436;-67
2023/08/29 03:53:56;;;;;;;;;;;;;;;12.82;49.22;94991.38;4955630;28;20156;-67
2023/08/29 03:56:21;;;;;;;;;;;;;;;12.69;49.53;94986.88;4955068;28;19964;-67
2023/08/29 03:58:48;;;;;;;;;;;;;;;12.46;50.56;94997.97;4955336;28;19962;-67
2023/08/29 04:01:14;;;;;;;;;;;;;;;12.36;50.26;94993.03;4953832;28;20006;-67
2023/08/29 04:03:39;;;;;;;;;;;;;;;12.25;50.62;94991.78;4954732;28;20367;-67
2023/08/29 04:06:04;;;;;;;;;;;;;;;12.15;50.71;94987.69;4955331;28;19943;-67
2023/08/29 04:08:29;;;;;;;;;;;;;;;11.74;51.67;94986.75;4955553;28;20158;-67
2023/08/29 04:10:55;;;;;;;;;;;;;;;11.49;52.71;94994.47;4954894;28;20046;-68
2023/08/29 04:13:20;;;;;;;;;;;;;;;11.21;53.50;95003.34;4955300;28;20490;-67
2023/08/29 04:15:46;;;;;;;;;;;;;;;11.19;53.83;95008.06;4954388;28;20614;-67
2023/08/29 04:18:11;;;;;;;;;;;;;;;11.04;54.30;95008.97;4952742;28;20467;-67
2023/08/29 04:20:37;;;;;;;;;;;;;;;10.99;54.32;95012.19;4954916;28;20004;-68
2023/08/29 04:23:06;;;;;;;;;;;;;;;11.07;54.19;95007.75;4954702;28;20232;-67
2023/08/29 04:25:34;;;;;;;;;;;;;;;11.32;53.46;95005.44;4955079;28;20039;-68
2023/08/29 04:27:59;;;;;;;;;;;;;;;11.26;53.63;95019.56;4951190;28;19965;-67
2023/08/29 04:30:25;;;;;;;;;;;;;;;11.44;53.25;95013.72;4954767;28;19968;-68
2023/08/29 04:32:53;;;;;;;;;;;;;;;11.41;53.56;95019.44;4954240;28;20000;-67
2023/08/29 04:35:18;;;;;;;;;;;;;;;11.50;52.93;95015.56;4954637;28;19953;-67
2023/08/29 04:37:47;;;;;;;;;;;;;;;11.43;53.22;95014.75;4954973;28;19942;-67
2023/08/29 04:40:12;;;;;;;;;;;;;;;11.76;52.41;95010.53;4954279;28;19960;-67
2023/08/29 04:42:37;;;;;;;;;;;;;;;11.87;52.33;95015.28;4954087;28;19951;-67
2023/08/29 04:45:04;;;;;;;;;;;;;;;11.83;51.66;95019.38;4948718;28;19962;-67
2023/08/29 04:47:32;;;;;;;;;;;;;;;11.76;52.03;95016.69;4954219;28;19959;-67
2023/08/29 04:49:58;;;;;;;;;;;;;;;11.83;51.71;95021.25;4953825;28;19968;-67
2023/08/29 04:52:24;;;;;;;;;;;;;;;11.99;51.98;95023.53;4946206;28;20450;-67
2023/08/29 04:54:49;;;;;;;;;;;;;;;12.40;50.58;95015.63;4954451;28;20032;-67
2023/08/29 04:57:14;;;;;;;;;;;;;;;12.52;50.09;95013.97;4954190;28;20168;-67
2023/08/29 04:59:40;;;;;;;;;;;;;;;12.50;49.92;95015.19;4953590;28;20064;-67
2023/08/29 05:02:05;;;;;;;;;;;;;;;12.35;50.33;95018.91;4954780;28;20092;-67
2023/08/29 05:04:30;;;;;;;;;;;;;;;12.27;50.54;95011.91;4953682;28;20632;-67
2023/08/29 05:06:56;;;;;;;;;;;;;;;12.28;50.34;95023.41;4954751;28;20447;-68
2023/08/29 05:09:21;;;;;;;;;;;;;;;12.32;50.39;95010.47;4953340;28;20007;-67
2023/08/29 05:11:46;;;;;;;;;;;;;;;12.27;50.86;95016.41;4954249;28;19965;-67
2023/08/29 05:14:12;;;;;;;;;;;;;;;12.32;50.82;95011.31;4953395;28;20781;-67
2023/08/29 05:16:37;;;;;;;;;;;;;;;12.40;51.17;95020.94;4951218;28;20062;-67
2023/08/29 05:19:04;;;;;;;;;;;;;;;12.45;50.23;95017.69;4954145;28;20391;-67
2023/08/29 05:21:30;;;;;;;;;;;;;;;12.47;50.67;95018.28;4954216;28;20219;-67
2023/08/29 05:23:56;;;;;;;;;;;;;;;12.53;50.69;95020.13;4954103;28;20011;-67
2023/08/29 05:26:22;;;;;;;;;;;;;;;12.61;50.42;95022.59;4953957;28;20326;-67
2023/08/29 05:28:47;;;;;;;;;;;;;;;12.66;50.32;95022.00;4953408;28;19989;-67
2023/08/29 05:31:12;;;;;;;;;;;;;;;12.71;49.89;95024.06;4953520;28;20458;-67
2023/08/29 05:33:37;;;;;;;;;;;;;;;12.81;49.77;95027.13;4953884;28;20451;-68
2023/08/29 05:36:02;;;;;;;;;;;;;;;12.95;48.90;95024.44;4953364;28;20070;-67
2023/08/29 05:38:28;;;;;;;;;;;;;;;12.89;48.94;95040.25;4954153;28;20261;-67
2023/08/29 05:40:53;;;;;;;;;;;;;;;12.58;49.99;95032.88;4953671;28;19957;-67
2023/08/29 05:43:18;;;;;;;;;;;;;;;11.97;51.54;95033.56;4950681;28;20369;-67
2023/08/29 05:45:44;;;;;;;;;;;;;;;11.77;52.06;95029.00;4953975;28;20566;-67
2023/08/29 05:48:09;;;;;;;;;;;;;;;12.01;51.73;95029.47;4953440;28;20420;-68
2023/08/29 05:50:34;;;;;;;;;;;;;;;11.88;51.94;95029.44;4953653;28;20077;-66
2023/08/29 05:53:00;;;;;;;;;;;;;;;11.74;52.72;95029.44;4953847;28;20037;-67
2023/08/29 05:55:25;;;;;;;;;;;;;;;11.57;53.17;95020.94;4953756;28;20071;-67
2023/08/29 05:57:50;;;;;;;;;;;;;;;11.21;54.39;95035.31;4953645;28;20297;-67
2023/08/29 06:00:16;;;;;;;;;;;;;;;11.11;54.70;95031.16;4952589;28;20245;-68
2023/08/29 06:02:41;;;;;;;;;;;;;;;10.69;56.14;95027.56;4954708;28;19947;-66
2023/08/29 06:05:07;;;;;;;;;;;;;;;10.36;57.33;95032.44;4957122;28;19997;-67
2023/08/29 06:07:33;;;;;;;;;;;;;;;10.12;58.30;95024.81;4956833;28;19964;-68
2023/08/29 06:09:58;;;;;;;;;;;;;;;10.06;58.45;95027.22;4956589;28;20280;-68
2023/08/29 06:12:23;;;;;;;;;;;;;;;9.80;59.46;95027.75;4952656;28;20080;-68
2023/08/29 06:14:49;;;;;;;;;;;;;;;9.78;59.61;95025.28;4955769;28;19958;-68
2023/08/29 06:17:14;;;;;;;;;;;;;;;9.40;60.79;95015.63;4959597;28;20395;-68
2023/08/29 06:19:39;;;;;;;;;;;;;;;9.04;62.03;95022.53;4957134;28;19971;-67
2023/08/29 06:22:04;;;;;;;;;;;;;;;9.04;62.84;95016.38;4952770;28;19965;-68
2023/08/29 06:24:30;;;;;;;;;;;;;;;8.95;63.42;95024.44;4960432;28;19972;-68
2023/08/29 06:26:55;;;;;;;;;;;;;;;9.03;63.06;95023.53;4956772;28;19964;-67
2023/08/29 06:29:20;;;;;;;;;;;;;;;9.17;63.00;95019.22;4956228;28;20015;-68
2023/08/29 06:31:45;;;;;;;;;;;;;;;9.43;61.76;95022.41;4953979;28;19961;-67
2023/08/29 06:34:11;;;;;;;;;;;;;;;9.31;62.13;95020.22;4954995;28;19976;-66
2023/08/29 06:36:36;;;;;;;;;;;;;;;9.31;62.39;95022.88;4952459;28;19926;-67
2023/08/29 06:39:01;;;;;;;;;;;;;;;9.19;63.10;95021.69;4950701;28;19934;-67
2023/08/29 06:41:27;;;;;;;;;;;;;;;9.19;63.12;95016.38;4950978;28;20343;-68
2023/08/29 06:43:52;;;;;;;;;;;;;;;9.50;62.66;95019.81;4948918;28;19969;-67
2023/08/29 06:46:17;;;;;;;;;;;;;;;9.50;62.39;95025.97;4951733;28;20585;-68
2023/08/29 06:48:42;;;;;;;;;;;;;;;9.56;62.21;95025.22;4951276;28;20023;-67
2023/08/29 06:51:08;;;;;;;;;;;;;;;9.89;61.42;95029.25;4949352;28;20028;-67
2023/08/29 06:53:34;;;;;;;;;;;;;;;9.90;61.41;95024.78;4950194;28;20008;-68
2023/08/29 06:55:59;;;;;;;;;;;;;;;10.55;59.56;95030.13;4950132;28;21617;-68
2023/08/29 06:58:25;;;;;;;;;;;;;;;10.80;58.73;95021.72;4949105;28;20065;-67
2023/08/29 07:00:53;;;;;;;;;;;;;;;10.78;58.82;95026.41;4947051;28;20283;-68
2023/08/29 07:03:18;;;;;;;;;;;;;;;10.76;59.01;95031.09;4947340;28;20048;-68
2023/08/29 07:05:43;;;;;;;;;;;;;;;10.74;59.30;95036.63;4945963;28;19951;-67
2023/08/29 07:08:09;;;;;;;;;;;;;;;10.41;59.74;95034.53;4946093;28;20072;-68
2023/08/29 07:10:34;;;;;;;;;;;;;;;10.60;59.46;95030.38;4946145;28;20016;-66
2023/08/29 07:12:59;;;;;;;;;;;;;;;10.94;58.98;95033.28;4945827;28;19993;-68
2023/08/29 07:15:24;;;;;;;;;;;;;;;10.93;59.18;95028.13;4946115;28;20714;-67
2023/08/29 07:17:50;;;;;;;;;;;;;;;10.94;58.86;95035.94;4945649;28;20383;-68
2023/08/29 07:20:15;;;;;;;;;;;;;;;10.97;58.38;95030.22;4946855;28;19969;-66
2023/08/29 07:22:42;;;;;;;;;;;;;;;11.05;58.58;95031.91;4945789;28;19953;-68
2023/08/29 07:25:08;;;;;;;;;;;;;;;11.28;57.86;95035.38;4948742;28;19940;-68
2023/08/29 07:27:33;;;;;;;;;;;;;;;11.35;57.82;95039.69;4952066;28;19930;-68
2023/08/29 07:29:58;;;;;;;;;;;;;;;11.23;57.83;95034.13;4950683;28;20040;-67
2023/08/29 07:32:24;;;;;;;;;;;;;;;11.32;57.82;95040.09;4947230;28;20461;-68
2023/08/29 07:34:50;;;;;;;;;;;;;;;11.29;57.89;95037.81;4946297;28;19922;-68
2023/08/29 07:37:15;;;;;;;;;;;;;;;11.52;57.00;95044.69;4945578;28;20335;-68
2023/08/29 07:39:40;;;;;;;;;;;;;;;11.43;56.59;95045.88;4945446;28;19973;-68
2023/08/29 07:42:06;;;;;;;;;;;;;;;11.67;56.71;95033.06;4947431;28;20613;-68
2023/08/29 07:44:31;;;;;;;;;;;;;;;11.74;55.66;95040.09;4946957;28;20247;-66
2023/08/29 07:46:56;;;;;;;;;;;;;;;12.21;54.06;95038.59;4951049;28;20081;-68
2023/08/29 07:49:22;;;;;;;;;;;;;;;12.45;54.07;95039.88;4947210;28;20401;-67
2023/08/29 07:51:48;;;;;;;;;;;;;;;12.55;54.96;95039.47;4946377;28;20291;-67
2023/08/29 07:54:13;;;;;;;;;;;;;;;12.85;52.91;95041.69;4946387;28;20281;-65
2023/08/29 07:56:38;;;;;;;;;;;;;;;12.77;53.01;95039.25;4945907;28;20073;-68
2023/08/29 07:59:04;;;;;;;;;;;;;;;13.08;51.96;95039.66;4944314;28;20041;-67
2023/08/29 08:01:29;;;;;;;;;;;;;;;13.14;51.33;95044.16;4944812;28;20048;-67
2023/08/29 08:03:54;;;;;;;;;;;;;;;12.82;53.21;95050.16;4944743;28;19999;-68
2023/08/29 08:06:19;;;;;;;;;;;;;;;12.82;52.87;95050.16;4945378;28;20589;-68
2023/08/29 08:08:45;;;;;;;;;;;;;;;12.77;53.17;95052.59;4946624;28;19960;-67
2023/08/29 08:11:10;;;;;;;;;;;;;;;12.74;52.16;95056.50;4943384;28;20067;-67
2023/08/29 08:13:35;;;;;;;;;;;;;;;13.22;51.67;95051.16;4944303;28;20070;-68
2023/08/29 08:16:00;;;;;;;;;;;;;;;13.30;51.41;95051.72;4949719;28;19992;-67
2023/08/29 08:18:26;;;;;;;;;;;;;;;13.51;51.18;95057.88;4946388;28;19932;-67
2023/08/29 08:20:51;;;;;;;;;;;;;;;13.65;49.99;95057.81;4945296;28;19926;-67
2023/08/29 08:23:16;;;;;;;;;;;;;;;13.27;50.22;95062.88;4944698;28;20801;-68
2023/08/29 08:25:41;;;;;;;;;;;;;;;13.33;50.88;95055.03;4945741;28;20434;-67
2023/08/29 08:28:07;;;;;;;;;;;;;;;13.36;50.39;95060.75;4946154;28;19972;-67
2023/08/29 08:30:32;;;;;;;;;;;;;;;13.50;50.48;95072.25;4944386;28;20029;-68
2023/08/29 08:32:57;;;;;;;;;;;;;;;13.79;49.80;95069.28;4944928;28;19930;-66
2023/08/29 08:35:23;;;;;;;;;;;;;;;13.61;49.89;95077.97;4945885;28;20037;-67
2023/08/29 08:37:48;;;;;;;;;;;;;;;13.75;50.11;95066.22;4946060;28;19963;-66
2023/08/29 08:40:14;;;;;;;;;;;;;;;13.77;50.57;95071.34;4946113;28;20120;-67
2023/08/29 08:42:40;;;;;;;;;;;;;;;14.10;49.30;95058.91;4944420;28;19947;-67
2023/08/29 08:45:05;;;;;;;;;;;;;;;13.98;50.16;95062.25;4945941;28;20422;-67
2023/08/29 08:47:31;;;;;;;;;;;;;;;14.26;50.04;95052.19;4943788;28;20220;-66
2023/08/29 08:49:56;;;;;;;;;;;;;;;14.35;49.35;95067.00;4944879;28;20098;-68
2023/08/29 08:52:21;;;;;;;;;;;;;;;14.35;48.80;95058.97;4944673;28;20660;-66
2023/08/29 08:54:46;;;;;;;;;;;;;;;14.52;47.65;95063.78;4949152;28;20196;-67
2023/08/29 08:57:12;;;;;;;;;;;;;;;15.07;46.57;95065.84;4950571;28;20076;-68
2023/08/29 08:59:37;;;;;;;;;;;;;;;14.68;47.35;95073.97;4943903;28;19956;-67
2023/08/29 09:02:03;;;;;;;;;;;;;;;15.09;46.81;95069.13;4945623;28;19958;-67
2023/08/29 09:04:28;;;;;;;;;;;;;;;14.89;46.81;95079.19;4944169;28;20032;-66
2023/08/29 09:06:54;;;;;;;;;;;;;;;14.95;47.16;95081.81;4945027;28;19947;-67
2023/08/29 09:09:22;;;;;;;;;;;;;;;15.27;45.15;95080.09;4943882;28;20314;-67
2023/08/29 09:11:54;;;;;;;;;;;;;;;14.41;47.05;95079.50;4945026;28;20010;-67
2023/08/29 09:14:20;;;;;;;;;;;;;;;14.36;46.89;95086.53;4945560;28;20013;-67
2023/08/29 09:16:45;;;;;;;;;;;;;;;14.00;48.56;95092.28;4944558;28;20535;-67
2023/08/29 09:19:11;;;;;;;;;;;;;;;14.75;46.99;95079.28;4944002;28;20441;-67
2023/08/29 09:21:36;;;;;;;;;;;;;;;14.67;49.09;95091.09;4944753;28;19937;-67
2023/08/29 09:24:04;;;;;;;;;;;;;;;14.49;49.33;95089.16;4943323;28;19952;-67
2023/08/29 09:26:30;;;;;;;;;;;;;;;14.64;47.22;95091.50;4943706;28;20012;-67
2023/08/29 09:28:55;;;;;;;;;;;;;;;15.29;44.81;95094.09;4945766;28;20410;-68
2023/08/29 09:31:20;;;;;;;;;;;;;;;15.60;45.76;95087.84;4944414;28;20401;-66
2023/08/29 09:33:46;;;;;;;;;;;;;;;15.48;45.41;95094.97;4943386;28;19926;-68
2023/08/29 09:36:11;;;;;;;;;;;;;;;15.86;46.24;95091.28;4945136;28;19952;-68
2023/08/29 09:38:36;;;;;;;;;;;;;;;15.86;44.91;95087.75;4949868;28;20020;-67
2023/08/29 09:41:01;;;;;;;;;;;;;;;15.41;45.77;95099.56;4948448;28;20338;-66
2023/08/29 09:43:27;;;;;;;;;;;;;;;14.93;45.21;95097.28;4952402;28;21888;-66
2023/08/29 09:45:52;;;;;;;;;;;;;;;15.12;45.28;95093.88;4948922;28;19944;-69
2023/08/29 09:48:18;;;;;;;;;;;;;;;14.82;47.10;95096.16;4946949;28;20425;-68
2023/08/29 09:50:43;;;;;;;;;;;;;;;15.15;44.63;95090.72;4948748;28;20063;-67
2023/08/29 09:53:09;;;;;;;;;;;;;;;14.97;44.94;95089.66;4946517;28;21248;-67
2023/08/29 09:55:39;;;;;;;;;;;;;;;15.30;44.33;95088.50;4947342;28;21365;-67
2023/08/29 09:58:04;;;;;;;;;;;;;;;15.46;44.29;95091.66;4948540;28;20658;-68
2023/08/29 10:00:30;;;;;;;;;;;;;;;15.43;44.42;95092.94;4947285;28;20263;-69
2023/08/29 10:02:55;;;;;;;;;;;;;;;15.80;43.39;95083.28;4947972;28;19944;-67
2023/08/29 10:05:22;;;;;;;;;;;;;;;15.94;44.12;95082.06;4952961;28;19926;-66
2023/08/29 10:07:47;;;;;;;;;;;;;;;15.70;41.89;95078.44;4953392;28;19926;-68
2023/08/29 10:10:12;;;;;;;;;;;;;;;15.96;42.93;95077.31;4953905;28;20006;-67
2023/08/29 10:12:38;;;;;;;;;;;;;;;16.63;41.01;95064.84;4951979;28;19930;-68
2023/08/29 10:15:04;;;;;;;;;;;;;;;16.49;41.59;95072.28;4950683;28;19965;-68
2023/08/29 10:17:30;;;;;;;;;;;;;;;16.44;41.53;95068.66;4951267;28;19956;-69
2023/08/29 10:19:55;;;;;;;;;;;;;;;16.15;41.93;95071.94;4951335;28;20215;-67
2023/08/29 10:22:21;;;;;;;;;;;;;;;16.32;42.04;95050.59;4950083;28;20193;-67
2023/08/29 10:24:46;;;;;;;;;;;;;;;16.45;42.63;95055.00;4947488;28;20062;-67
2023/08/29 10:27:11;;;;;;;;;;;;;;;16.09;43.23;95054.03;4950175;28;20558;-67
2023/08/29 10:29:37;;;;;;;;;;;;;;;16.54;41.34;95057.34;4948651;28;19964;-68
2023/08/29 10:32:02;;;;;;;;;;;;;;;16.44;41.57;95053.34;4947474;28;20427;-67
2023/08/29 10:34:28;;;;;;;;;;;;;;;16.50;42.71;95055.13;4945663;28;19984;-67
2023/08/29 10:36:53;;;;;;;;;;;;;;;16.88;41.89;95047.72;4949473;28;19926;-68
2023/08/29 10:39:19;;;;;;;;;;;;;;;17.32;39.82;95040.38;4946359;28;19981;-68
2023/08/29 10:41:48;;;;;;;;;;;;;;;17.53;38.26;95039.78;4947378;28;19948;-68
2023/08/29 10:44:23;;;;;;;;;;;;;;;16.83;41.01;95036.81;4952355;28;20545;-68
2023/08/29 10:46:51;;;;;;;;;;;;;;;15.89;43.28;95047.06;4946065;28;19921;-68
2023/08/29 10:49:16;;;;;;;;;;;;;;;16.30;43.38;95043.81;4949200;28;20425;-66
2023/08/29 10:51:43;;;;;;;;;;;;;;;16.47;44.10;95041.34;4950351;28;19926;-67
2023/08/29 10:54:08;;;;;;;;;;;;;;;16.60;41.49;95040.31;4952776;28;20461;-66
2023/08/29 10:56:43;;;;;;;;;;;;;;;16.72;43.70;95033.09;4947122;28;19966;-68
2023/08/29 10:59:27;;;;;;;;;;;;;;;16.31;42.55;95032.03;4949812;28;19922;-66
2023/08/29 11:01:52;;;;;;;;;;;;;;;16.45;42.14;95038.06;4946873;28;19972;-67
2023/08/29 11:04:17;;;;;;;;;;;;;;;16.28;42.46;95035.19;4945271;28;20465;-67
2023/08/29 11:06:53;;;;;;;;;;;;;;;15.86;44.46;95034.06;4946921;28;20014;-68
2023/08/29 11:09:22;;;;;;;;;;;;;;;16.06;43.77;95028.47;4947654;28;19953;-66
2023/08/29 11:12:06;;;;;;;;;;;;;;;16.44;40.44;95023.81;4945510;28;19926;-67
2023/08/29 11:14:51;;;;;;;;;;;;;;;16.96;39.20;95025.03;4946409;28;19999;-68
2023/08/29 11:17:22;;;;;;;;;;;;;;;16.80;40.08;95023.06;4948882;28;19976;-68
2023/08/29 11:19:48;;;;;;;;;;;;;;;16.08;40.67;95025.53;4944803;28;19954;-67
2023/08/29 11:22:14;;;;;;;;;;;;;;;16.43;41.67;95024.03;4946355;28;20118;-68
2023/08/29 11:24:39;;;;;;;;;;;;;;;17.00;40.38;95023.53;4944181;28;20000;-68
2023/08/29 11:27:04;;;;;;;;;;;;;;;16.87;38.13;95026.44;4946812;28;19992;-67
2023/08/29 11:29:36;;;;;;;;;;;;;;;16.39;38.70;95027.19;4945165;28;20606;-67
2023/08/29 11:32:01;;;;;;;;;;;;;;;16.78;36.87;95020.59;4948214;28;19933;-67
2023/08/29 11:34:26;;;;;;;;;;;;;;;17.48;37.67;95017.31;4948715;28;19926;-68
2023/08/29 11:36:52;;;;;;;;;;;;;;;17.30;37.73;95019.09;4946259;28;21493;-68
2023/08/29 11:39:21;;;;;;;;;;;;;;;17.15;37.74;95016.88;4945666;28;20098;-68
2023/08/29 11:41:46;;;;;;;;;;;;;;;16.69;38.47;95030.06;4946267;28;19922;-67
2023/08/29 11:44:11;;;;;;;;;;;;;;;16.46;39.87;95028.97;4944392;28;19979;-68
2023/08/29 11:46:37;;;;;;;;;;;;;;;15.63;43.51;95042.84;4945789;28;19960;-67
2023/08/29 11:49:12;;;;;;;;;;;;;;;14.70;45.81;95039.75;4944760;28;20113;-67
2023/08/29 11:51:39;;;;;;;;;;;;;;;14.67;46.53;95047.38;4946123;28;19997;-68
2023/08/29 11:54:04;;;;;;;;;;;;;;;14.29;47.38;95043.75;4944621;28;19934;-67
2023/08/29 11:56:29;;;;;;;;;;;;;;;13.64;47.75;95057.00;4945251;28;19959;-67
2023/08/29 11:58:56;;;;;;;;;;;;;;;12.94;49.10;95055.66;4946273;28;20401;-67
2023/08/29 12:01:21;;;;;;;;;;;;;;;13.08;48.44;95058.38;4944427;28;20613;-67
2023/08/29 12:03:47;;;;;;;;;;;;;;;12.64;50.06;95056.91;4947583;28;20265;-67
2023/08/29 12:06:12;;;;;;;;;;;;;;;12.40;50.50;95059.16;4944917;28;19986;-67
2023/08/29 12:08:39;;;;;;;;;;;;;;;12.15;50.83;95051.72;4944934;28;19963;-67
2023/08/29 12:11:06;;;;;;;;;;;;;;;11.90;50.51;95054.91;4944615;28;20098;-67
2023/08/29 12:13:31;;;;;;;;;;;;;;;11.41;52.06;95055.91;4945706;28;20243;-65
2023/08/29 12:15:57;;;;;;;;;;;;;;;11.27;51.87;95055.84;4947934;28;20595;-65
2023/08/29 12:18:25;;;;;;;;;;;;;;;11.09;51.51;95059.03;4944516;28;20361;-65
2023/08/29 12:20:50;;;;;;;;;;;;;;;11.43;51.95;95054.72;4944785;28;20450;-66
2023/08/29 12:23:28;;;;;;;;;;;;;;;11.74;51.28;95049.91;4946240;28;19926;-67
2023/08/29 12:25:56;;;;;;;;;;;;;;;11.90;50.39;95059.44;4948306;28;20010;-67
2023/08/29 12:28:22;;;;;;;;;;;;;;;12.02;49.74;95047.16;4946082;28;19930;-67
2023/08/29 12:30:48;;;;;;;;;;;;;;;12.19;49.10;95045.97;4945579;28;20017;-67
2023/08/29 12:33:13;;;;;;;;;;;;;;;12.62;49.63;95042.94;4946258;28;19926;-76
2023/08/29 12:35:39;;;;;;;;;;;;;;;12.83;48.27;95035.75;4946218;28;19973;-75
2023/08/29 12:38:04;;;;;;;;;;;;;;;12.82;47.28;95042.13;4947762;28;20860;-76
2023/08/29 12:40:30;;;;;;;;;;;;;;;13.10;48.41;95030.41;4945446;28;20481;-77